sensor_id;sensor_type;location;lat;lon;timestamp;P1;durP1;ratioP1;P2;durP2;ratioP2
16409;SDS011;8314;52.426;13.284;2022-07-18T00:01:48;8.43;;;4.05;;
16409;SDS011;8314;52.426;13.284;2022-07-18T00:04:20;8.80;;;4.13;;
16409;SDS011;8314;52.426;13.284;2022-07-18T00:06:48;6.97;;;3.90;;
16409;SDS011;8314;52.426;13.284;2022-07-18T00:09:23;7.90;;;4.00;;
16409;SDS011;8314;52.426;13.284;2022-07-18T00:11:51;7.68;;;3.92;;
16409;SDS011;8314;52.426;13.284;2022-07-18T00:14:23;7.15;;;3.72;;
16409;SDS011;8314;52.426;13.284;2022-07-18T00:16:51;8.20;;;3.72;;
16409;SDS011;8314;52.426;13.284;2022-07-18T00:19:19;7.53;;;4.00;;
16409;SDS011;8314;52.426;13.284;2022-07-18T00:21:46;6.38;;;3.33;;
16409;SDS011;8314;52.426;13.284;2022-07-18T00:24:14;7.45;;;3.88;;
16409;SDS011;8314;52.426;13.284;2022-07-18T00:26:43;9.25;;;4.10;;
16409;SDS011;8314;52.426;13.284;2022-07-18T00:29:10;7.30;;;3.97;;
16409;SDS011;8314;52.426;13.284;2022-07-18T00:31:40;8.30;;;4.25;;
16409;SDS011;8314;52.426;13.284;2022-07-18T00:34:07;7.47;;;3.83;;
16409;SDS011;8314;52.426;13.284;2022-07-18T00:36:39;8.43;;;4.53;;
16409;SDS011;8314;52.426;13.284;2022-07-18T00:39:07;7.10;;;4.13;;
16409;SDS011;8314;52.426;13.284;2022-07-18T00:41:34;8.73;;;3.72;;
16409;SDS011;8314;52.426;13.284;2022-07-18T00:44:04;7.50;;;3.90;;
16409;SDS011;8314;52.426;13.284;2022-07-18T00:46:32;9.05;;;3.88;;
16409;SDS011;8314;52.426;13.284;2022-07-18T00:49:00;8.00;;;3.85;;
16409;SDS011;8314;52.426;13.284;2022-07-18T00:51:28;6.30;;;3.58;;
16409;SDS011;8314;52.426;13.284;2022-07-18T00:53:56;6.43;;;3.88;;
16409;SDS011;8314;52.426;13.284;2022-07-18T00:56:32;5.45;;;3.45;;
16409;SDS011;8314;52.426;13.284;2022-07-18T01:01:35;8.10;;;3.20;;
16409;SDS011;8314;52.426;13.284;2022-07-18T01:04:16;9.60;;;4.10;;
16409;SDS011;8314;52.426;13.284;2022-07-18T01:06:50;7.70;;;3.17;;
16409;SDS011;8314;52.426;13.284;2022-07-18T01:09:18;6.60;;;3.30;;
16409;SDS011;8314;52.426;13.284;2022-07-18T01:11:46;5.63;;;3.30;;
16409;SDS011;8314;52.426;13.284;2022-07-18T01:14:18;5.78;;;3.53;;
16409;SDS011;8314;52.426;13.284;2022-07-18T01:16:46;8.43;;;3.95;;
16409;SDS011;8314;52.426;13.284;2022-07-18T01:19:16;6.63;;;3.30;;
16409;SDS011;8314;52.426;13.284;2022-07-18T01:21:49;8.38;;;3.50;;
16409;SDS011;8314;52.426;13.284;2022-07-18T01:24:19;7.25;;;3.55;;
16409;SDS011;8314;52.426;13.284;2022-07-18T01:26:49;6.70;;;3.53;;
16409;SDS011;8314;52.426;13.284;2022-07-18T01:29:17;6.20;;;3.63;;
16409;SDS011;8314;52.426;13.284;2022-07-18T01:31:45;5.53;;;3.20;;
16409;SDS011;8314;52.426;13.284;2022-07-18T01:34:12;6.95;;;3.35;;
16409;SDS011;8314;52.426;13.284;2022-07-18T01:36:40;5.95;;;3.15;;
16409;SDS011;8314;52.426;13.284;2022-07-18T01:39:13;6.35;;;3.15;;
16409;SDS011;8314;52.426;13.284;2022-07-18T01:42:40;6.68;;;3.67;;
16409;SDS011;8314;52.426;13.284;2022-07-18T01:45:02;5.07;;;3.20;;
16409;SDS011;8314;52.426;13.284;2022-07-18T01:47:30;6.32;;;3.45;;
16409;SDS011;8314;52.426;13.284;2022-07-18T01:49:58;6.95;;;3.30;;
16409;SDS011;8314;52.426;13.284;2022-07-18T01:52:25;7.15;;;3.30;;
16409;SDS011;8314;52.426;13.284;2022-07-18T01:54:55;4.72;;;3.10;;
16409;SDS011;8314;52.426;13.284;2022-07-18T01:57:23;7.45;;;3.45;;
16409;SDS011;8314;52.426;13.284;2022-07-18T01:59:51;7.85;;;4.15;;
16409;SDS011;8314;52.426;13.284;2022-07-18T02:02:18;6.70;;;3.53;;
16409;SDS011;8314;52.426;13.284;2022-07-18T02:04:46;5.13;;;3.05;;
16409;SDS011;8314;52.426;13.284;2022-07-18T02:07:30;7.70;;;3.38;;
16409;SDS011;8314;52.426;13.284;2022-07-18T02:10:03;7.18;;;3.10;;
16409;SDS011;8314;52.426;13.284;2022-07-18T02:12:32;6.55;;;3.10;;
16409;SDS011;8314;52.426;13.284;2022-07-18T02:15:00;5.88;;;3.30;;
16409;SDS011;8314;52.426;13.284;2022-07-18T02:17:27;7.85;;;3.50;;
16409;SDS011;8314;52.426;13.284;2022-07-18T02:19:55;6.70;;;3.08;;
16409;SDS011;8314;52.426;13.284;2022-07-18T02:22:22;6.93;;;3.50;;
16409;SDS011;8314;52.426;13.284;2022-07-18T02:24:50;7.35;;;3.00;;
16409;SDS011;8314;52.426;13.284;2022-07-18T02:27:20;8.40;;;3.63;;
16409;SDS011;8314;52.426;13.284;2022-07-18T02:29:48;6.53;;;3.58;;
16409;SDS011;8314;52.426;13.284;2022-07-18T02:32:15;6.88;;;3.70;;
16409;SDS011;8314;52.426;13.284;2022-07-18T02:34:43;7.07;;;3.45;;
16409;SDS011;8314;52.426;13.284;2022-07-18T02:37:11;7.35;;;3.90;;
16409;SDS011;8314;52.426;13.284;2022-07-18T02:39:39;8.50;;;3.28;;
16409;SDS011;8314;52.426;13.284;2022-07-18T02:42:33;5.20;;;3.22;;
16409;SDS011;8314;52.426;13.284;2022-07-18T02:45:01;7.20;;;3.22;;
16409;SDS011;8314;52.426;13.284;2022-07-18T02:47:29;6.53;;;3.63;;
16409;SDS011;8314;52.426;13.284;2022-07-18T02:49:57;6.68;;;3.58;;
16409;SDS011;8314;52.426;13.284;2022-07-18T02:52:29;6.78;;;3.38;;
16409;SDS011;8314;52.426;13.284;2022-07-18T02:54:57;6.88;;;3.42;;
16409;SDS011;8314;52.426;13.284;2022-07-18T02:57:27;5.85;;;3.70;;
16409;SDS011;8314;52.426;13.284;2022-07-18T02:59:56;6.90;;;3.20;;
16409;SDS011;8314;52.426;13.284;2022-07-18T03:02:24;4.68;;;3.05;;
16409;SDS011;8314;52.426;13.284;2022-07-18T03:04:52;6.45;;;3.28;;
16409;SDS011;8314;52.426;13.284;2022-07-18T03:07:22;8.02;;;3.42;;
16409;SDS011;8314;52.426;13.284;2022-07-18T03:09:58;7.55;;;3.25;;
16409;SDS011;8314;52.426;13.284;2022-07-18T03:12:25;7.15;;;3.55;;
16409;SDS011;8314;52.426;13.284;2022-07-18T03:14:54;7.57;;;3.85;;
16409;SDS011;8314;52.426;13.284;2022-07-18T03:19:56;6.68;;;3.42;;
16409;SDS011;8314;52.426;13.284;2022-07-18T03:22:24;8.40;;;3.75;;
16409;SDS011;8314;52.426;13.284;2022-07-18T03:24:52;7.22;;;3.40;;
16409;SDS011;8314;52.426;13.284;2022-07-18T03:27:20;9.00;;;3.85;;
16409;SDS011;8314;52.426;13.284;2022-07-18T03:29:49;6.00;;;3.20;;
16409;SDS011;8314;52.426;13.284;2022-07-18T03:32:17;6.20;;;3.30;;
16409;SDS011;8314;52.426;13.284;2022-07-18T03:34:46;9.52;;;3.30;;
16409;SDS011;8314;52.426;13.284;2022-07-18T03:37:13;9.55;;;3.42;;
16409;SDS011;8314;52.426;13.284;2022-07-18T03:39:41;6.88;;;3.30;;
16409;SDS011;8314;52.426;13.284;2022-07-18T03:42:09;6.20;;;3.53;;
16409;SDS011;8314;52.426;13.284;2022-07-18T03:44:36;7.03;;;3.67;;
16409;SDS011;8314;52.426;13.284;2022-07-18T03:47:04;7.07;;;3.15;;
16409;SDS011;8314;52.426;13.284;2022-07-18T03:49:33;9.20;;;3.30;;
16409;SDS011;8314;52.426;13.284;2022-07-18T03:52:01;8.15;;;3.60;;
16409;SDS011;8314;52.426;13.284;2022-07-18T03:54:28;8.23;;;3.90;;
16409;SDS011;8314;52.426;13.284;2022-07-18T03:56:56;8.90;;;3.80;;
16409;SDS011;8314;52.426;13.284;2022-07-18T03:59:24;7.47;;;3.78;;
16409;SDS011;8314;52.426;13.284;2022-07-18T04:01:51;8.00;;;3.90;;
16409;SDS011;8314;52.426;13.284;2022-07-18T04:04:19;7.82;;;3.53;;
16409;SDS011;8314;52.426;13.284;2022-07-18T04:06:49;6.90;;;3.42;;
16409;SDS011;8314;52.426;13.284;2022-07-18T04:09:16;9.68;;;3.60;;
16409;SDS011;8314;52.426;13.284;2022-07-18T04:11:45;7.10;;;4.03;;
16409;SDS011;8314;52.426;13.284;2022-07-18T04:14:12;8.60;;;3.90;;
16409;SDS011;8314;52.426;13.284;2022-07-18T04:16:40;7.35;;;3.80;;
16409;SDS011;8314;52.426;13.284;2022-07-18T04:19:08;9.30;;;3.78;;
16409;SDS011;8314;52.426;13.284;2022-07-18T04:21:35;6.95;;;3.47;;
16409;SDS011;8314;52.426;13.284;2022-07-18T04:24:05;7.05;;;3.58;;
16409;SDS011;8314;52.426;13.284;2022-07-18T04:26:33;7.30;;;3.40;;
16409;SDS011;8314;52.426;13.284;2022-07-18T04:29:01;10.73;;;4.05;;
16409;SDS011;8314;52.426;13.284;2022-07-18T04:31:29;5.88;;;3.55;;
16409;SDS011;8314;52.426;13.284;2022-07-18T04:33:57;6.50;;;3.83;;
16409;SDS011;8314;52.426;13.284;2022-07-18T04:36:25;6.88;;;4.20;;
16409;SDS011;8314;52.426;13.284;2022-07-18T04:38:54;6.13;;;3.30;;
16409;SDS011;8314;52.426;13.284;2022-07-18T04:41:23;10.05;;;3.72;;
16409;SDS011;8314;52.426;13.284;2022-07-18T04:43:55;10.43;;;3.67;;
16409;SDS011;8314;52.426;13.284;2022-07-18T04:46:22;9.05;;;4.13;;
16409;SDS011;8314;52.426;13.284;2022-07-18T04:48:50;14.38;;;4.20;;
16409;SDS011;8314;52.426;13.284;2022-07-18T04:51:18;6.05;;;3.33;;
16409;SDS011;8314;52.426;13.284;2022-07-18T04:53:46;7.32;;;3.70;;
16409;SDS011;8314;52.426;13.284;2022-07-18T04:56:14;7.22;;;3.67;;
16409;SDS011;8314;52.426;13.284;2022-07-18T04:58:43;7.55;;;3.60;;
16409;SDS011;8314;52.426;13.284;2022-07-18T05:01:11;6.40;;;3.70;;
16409;SDS011;8314;52.426;13.284;2022-07-18T05:03:39;8.70;;;3.08;;
16409;SDS011;8314;52.426;13.284;2022-07-18T05:06:07;8.00;;;3.50;;
16409;SDS011;8314;52.426;13.284;2022-07-18T05:08:34;7.47;;;3.95;;
16409;SDS011;8314;52.426;13.284;2022-07-18T05:11:02;8.63;;;4.28;;
16409;SDS011;8314;52.426;13.284;2022-07-18T05:13:30;10.10;;;4.03;;
16409;SDS011;8314;52.426;13.284;2022-07-18T05:15:59;7.97;;;3.70;;
16409;SDS011;8314;52.426;13.284;2022-07-18T05:18:27;8.13;;;3.55;;
16409;SDS011;8314;52.426;13.284;2022-07-18T05:20:54;8.25;;;3.53;;
16409;SDS011;8314;52.426;13.284;2022-07-18T05:23:22;7.75;;;3.13;;
16409;SDS011;8314;52.426;13.284;2022-07-18T05:25:50;9.50;;;3.75;;
16409;SDS011;8314;52.426;13.284;2022-07-18T05:28:19;7.03;;;3.47;;
16409;SDS011;8314;52.426;13.284;2022-07-18T05:30:47;7.07;;;3.63;;
16409;SDS011;8314;52.426;13.284;2022-07-18T05:33:16;6.82;;;3.33;;
16409;SDS011;8314;52.426;13.284;2022-07-18T05:35:43;7.20;;;3.30;;
16409;SDS011;8314;52.426;13.284;2022-07-18T05:38:11;7.80;;;3.85;;
16409;SDS011;8314;52.426;13.284;2022-07-18T05:40:38;5.78;;;3.22;;
16409;SDS011;8314;52.426;13.284;2022-07-18T05:43:06;10.05;;;4.03;;
16409;SDS011;8314;52.426;13.284;2022-07-18T05:45:34;11.15;;;3.28;;
16409;SDS011;8314;52.426;13.284;2022-07-18T05:48:01;9.18;;;3.60;;
16409;SDS011;8314;52.426;13.284;2022-07-18T05:50:32;5.35;;;3.13;;
16409;SDS011;8314;52.426;13.284;2022-07-18T05:53:00;8.52;;;3.65;;
16409;SDS011;8314;52.426;13.284;2022-07-18T05:55:28;6.63;;;3.58;;
16409;SDS011;8314;52.426;13.284;2022-07-18T05:57:56;6.68;;;3.17;;
16409;SDS011;8314;52.426;13.284;2022-07-18T06:00:23;10.07;;;3.22;;
16409;SDS011;8314;52.426;13.284;2022-07-18T06:02:53;9.02;;;3.53;;
16409;SDS011;8314;52.426;13.284;2022-07-18T06:05:20;8.65;;;3.45;;
16409;SDS011;8314;52.426;13.284;2022-07-18T06:07:53;6.50;;;3.20;;
16409;SDS011;8314;52.426;13.284;2022-07-18T06:10:21;8.18;;;3.22;;
16409;SDS011;8314;52.426;13.284;2022-07-18T06:12:50;7.63;;;3.08;;
16409;SDS011;8314;52.426;13.284;2022-07-18T06:15:18;6.97;;;3.17;;
16409;SDS011;8314;52.426;13.284;2022-07-18T06:17:46;6.35;;;3.38;;
16409;SDS011;8314;52.426;13.284;2022-07-18T06:20:14;8.60;;;2.90;;
16409;SDS011;8314;52.426;13.284;2022-07-18T06:22:41;9.48;;;3.17;;
16409;SDS011;8314;52.426;13.284;2022-07-18T06:25:10;7.43;;;3.20;;
16409;SDS011;8314;52.426;13.284;2022-07-18T06:27:38;4.35;;;2.63;;
16409;SDS011;8314;52.426;13.284;2022-07-18T06:30:07;5.30;;;2.97;;
16409;SDS011;8314;52.426;13.284;2022-07-18T06:32:36;5.57;;;2.75;;
16409;SDS011;8314;52.426;13.284;2022-07-18T06:35:04;6.38;;;3.08;;
16409;SDS011;8314;52.426;13.284;2022-07-18T06:37:33;5.57;;;3.15;;
16409;SDS011;8314;52.426;13.284;2022-07-18T06:40:00;5.15;;;2.90;;
16409;SDS011;8314;52.426;13.284;2022-07-18T06:42:32;5.60;;;2.70;;
16409;SDS011;8314;52.426;13.284;2022-07-18T06:45:00;7.13;;;3.13;;
16409;SDS011;8314;52.426;13.284;2022-07-18T06:47:36;5.47;;;2.53;;
16409;SDS011;8314;52.426;13.284;2022-07-18T06:50:04;4.53;;;2.78;;
16409;SDS011;8314;52.426;13.284;2022-07-18T06:52:32;4.43;;;2.30;;
16409;SDS011;8314;52.426;13.284;2022-07-18T06:55:00;5.90;;;2.53;;
16409;SDS011;8314;52.426;13.284;2022-07-18T06:57:27;10.35;;;2.70;;
16409;SDS011;8314;52.426;13.284;2022-07-18T06:59:56;6.88;;;2.92;;
16409;SDS011;8314;52.426;13.284;2022-07-18T07:02:26;8.00;;;2.83;;
16409;SDS011;8314;52.426;13.284;2022-07-18T07:04:54;5.22;;;2.45;;
16409;SDS011;8314;52.426;13.284;2022-07-18T07:07:22;4.68;;;2.33;;
16409;SDS011;8314;52.426;13.284;2022-07-18T07:09:52;4.72;;;2.10;;
16409;SDS011;8314;52.426;13.284;2022-07-18T07:12:20;4.15;;;2.03;;
16409;SDS011;8314;52.426;13.284;2022-07-18T07:14:47;10.52;;;2.67;;
16409;SDS011;8314;52.426;13.284;2022-07-18T07:17:16;4.78;;;1.92;;
16409;SDS011;8314;52.426;13.284;2022-07-18T07:19:44;5.70;;;2.22;;
16409;SDS011;8314;52.426;13.284;2022-07-18T07:22:12;5.57;;;1.88;;
16409;SDS011;8314;52.426;13.284;2022-07-18T07:24:39;4.90;;;2.03;;
16409;SDS011;8314;52.426;13.284;2022-07-18T07:27:07;6.18;;;2.40;;
16409;SDS011;8314;52.426;13.284;2022-07-18T07:29:35;5.57;;;2.10;;
16409;SDS011;8314;52.426;13.284;2022-07-18T07:32:02;6.72;;;2.15;;
16409;SDS011;8314;52.426;13.284;2022-07-18T07:34:33;6.65;;;2.25;;
16409;SDS011;8314;52.426;13.284;2022-07-18T07:37:01;5.93;;;2.33;;
16409;SDS011;8314;52.426;13.284;2022-07-18T07:39:29;5.57;;;1.98;;
16409;SDS011;8314;52.426;13.284;2022-07-18T07:41:56;6.22;;;2.22;;
16409;SDS011;8314;52.426;13.284;2022-07-18T07:44:30;5.47;;;2.35;;
16409;SDS011;8314;52.426;13.284;2022-07-18T07:46:57;6.82;;;2.30;;
16409;SDS011;8314;52.426;13.284;2022-07-18T07:49:25;4.63;;;1.90;;
16409;SDS011;8314;52.426;13.284;2022-07-18T07:51:54;5.45;;;2.00;;
16409;SDS011;8314;52.426;13.284;2022-07-18T07:54:21;4.18;;;1.90;;
16409;SDS011;8314;52.426;13.284;2022-07-18T07:56:49;7.50;;;2.30;;
16409;SDS011;8314;52.426;13.284;2022-07-18T07:59:16;3.85;;;2.03;;
16409;SDS011;8314;52.426;13.284;2022-07-18T08:01:44;7.07;;;2.33;;
16409;SDS011;8314;52.426;13.284;2022-07-18T08:04:12;3.88;;;2.63;;
16409;SDS011;8314;52.426;13.284;2022-07-18T08:06:39;5.35;;;2.45;;
16409;SDS011;8314;52.426;13.284;2022-07-18T08:09:08;5.93;;;2.50;;
16409;SDS011;8314;52.426;13.284;2022-07-18T08:11:36;5.90;;;3.17;;
16409;SDS011;8314;52.426;13.284;2022-07-18T08:14:03;5.18;;;2.20;;
16409;SDS011;8314;52.426;13.284;2022-07-18T08:16:32;4.68;;;2.20;;
16409;SDS011;8314;52.426;13.284;2022-07-18T08:19:00;6.15;;;2.28;;
16409;SDS011;8314;52.426;13.284;2022-07-18T08:21:27;5.57;;;2.45;;
16409;SDS011;8314;52.426;13.284;2022-07-18T08:23:55;5.07;;;2.22;;
16409;SDS011;8314;52.426;13.284;2022-07-18T08:26:31;5.18;;;2.20;;
16409;SDS011;8314;52.426;13.284;2022-07-18T08:29:00;5.93;;;2.50;;
16409;SDS011;8314;52.426;13.284;2022-07-18T08:31:28;6.22;;;2.35;;
16409;SDS011;8314;52.426;13.284;2022-07-18T08:33:57;6.20;;;2.85;;
16409;SDS011;8314;52.426;13.284;2022-07-18T08:36:25;5.78;;;2.63;;
16409;SDS011;8314;52.426;13.284;2022-07-18T08:38:52;5.68;;;2.40;;
16409;SDS011;8314;52.426;13.284;2022-07-18T08:41:20;6.60;;;2.25;;
16409;SDS011;8314;52.426;13.284;2022-07-18T08:43:51;5.60;;;2.13;;
16409;SDS011;8314;52.426;13.284;2022-07-18T08:46:19;4.32;;;2.40;;
16409;SDS011;8314;52.426;13.284;2022-07-18T08:48:48;6.15;;;2.60;;
16409;SDS011;8314;52.426;13.284;2022-07-18T08:51:18;9.70;;;2.40;;
16409;SDS011;8314;52.426;13.284;2022-07-18T08:53:46;7.28;;;2.10;;
16409;SDS011;8314;52.426;13.284;2022-07-18T08:56:14;11.55;;;2.92;;
16409;SDS011;8314;52.426;13.284;2022-07-18T08:58:42;4.50;;;2.42;;
16409;SDS011;8314;52.426;13.284;2022-07-18T09:01:12;6.80;;;2.53;;
16409;SDS011;8314;52.426;13.284;2022-07-18T09:03:40;4.60;;;2.55;;
16409;SDS011;8314;52.426;13.284;2022-07-18T09:06:08;7.40;;;3.10;;
16409;SDS011;8314;52.426;13.284;2022-07-18T09:08:37;8.27;;;3.25;;
16409;SDS011;8314;52.426;13.284;2022-07-18T09:11:08;7.82;;;3.72;;
16409;SDS011;8314;52.426;13.284;2022-07-18T09:13:57;6.90;;;3.20;;
16409;SDS011;8314;52.426;13.284;2022-07-18T09:16:26;9.30;;;4.30;;
16409;SDS011;8314;52.426;13.284;2022-07-18T09:18:54;8.93;;;3.80;;
16409;SDS011;8314;52.426;13.284;2022-07-18T09:21:23;9.05;;;3.70;;
16409;SDS011;8314;52.426;13.284;2022-07-18T09:24:18;8.98;;;4.03;;
16409;SDS011;8314;52.426;13.284;2022-07-18T09:26:45;8.60;;;4.15;;
16409;SDS011;8314;52.426;13.284;2022-07-18T09:29:16;6.88;;;3.90;;
16409;SDS011;8314;52.426;13.284;2022-07-18T09:32:25;8.85;;;4.00;;
16409;SDS011;8314;52.426;13.284;2022-07-18T09:34:54;7.68;;;3.53;;
16409;SDS011;8314;52.426;13.284;2022-07-18T09:37:29;8.18;;;4.38;;
16409;SDS011;8314;52.426;13.284;2022-07-18T09:40:15;7.43;;;4.38;;
16409;SDS011;8314;52.426;13.284;2022-07-18T09:43:04;11.07;;;4.68;;
16409;SDS011;8314;52.426;13.284;2022-07-18T09:45:47;8.95;;;5.18;;
16409;SDS011;8314;52.426;13.284;2022-07-18T09:52:05;8.77;;;4.55;;
16409;SDS011;8314;52.426;13.284;2022-07-18T09:58:52;9.82;;;4.57;;
16409;SDS011;8314;52.426;13.284;2022-07-18T10:01:25;9.40;;;5.40;;
16409;SDS011;8314;52.426;13.284;2022-07-18T10:04:00;11.43;;;5.00;;
16409;SDS011;8314;52.426;13.284;2022-07-18T10:07:07;12.98;;;5.45;;
16409;SDS011;8314;52.426;13.284;2022-07-18T10:10:06;8.73;;;5.15;;
16409;SDS011;8314;52.426;13.284;2022-07-18T10:12:34;10.30;;;4.57;;
16409;SDS011;8314;52.426;13.284;2022-07-18T10:15:34;12.38;;;5.15;;
16409;SDS011;8314;52.426;13.284;2022-07-18T10:19:29;10.43;;;4.72;;
16409;SDS011;8314;52.426;13.284;2022-07-18T10:26:27;11.05;;;5.60;;
16409;SDS011;8314;52.426;13.284;2022-07-18T10:33:39;8.05;;;4.95;;
16409;SDS011;8314;52.426;13.284;2022-07-18T10:46:17;10.27;;;5.95;;
16409;SDS011;8314;52.426;13.284;2022-07-18T10:49:23;10.10;;;5.03;;
16409;SDS011;8314;52.426;13.284;2022-07-18T10:52:57;9.63;;;4.60;;
16409;SDS011;8314;52.426;13.284;2022-07-18T11:00:01;9.43;;;4.35;;
16409;SDS011;8314;52.426;13.284;2022-07-18T11:02:37;9.55;;;4.45;;
16409;SDS011;8314;52.426;13.284;2022-07-18T11:11:03;8.25;;;4.20;;
16409;SDS011;8314;52.426;13.284;2022-07-18T11:13:33;7.07;;;3.90;;
16409;SDS011;8314;52.426;13.284;2022-07-18T11:16:03;7.82;;;4.30;;
16409;SDS011;8314;52.426;13.284;2022-07-18T11:21:58;7.40;;;4.13;;
16409;SDS011;8314;52.426;13.284;2022-07-18T11:24:29;8.13;;;4.13;;
16409;SDS011;8314;52.426;13.284;2022-07-18T11:31:42;7.13;;;3.95;;
16409;SDS011;8314;52.426;13.284;2022-07-18T11:41:05;7.43;;;3.83;;
16409;SDS011;8314;52.426;13.284;2022-07-18T11:43:35;7.53;;;3.78;;
16409;SDS011;8314;52.426;13.284;2022-07-18T11:46:04;7.97;;;4.00;;
16409;SDS011;8314;52.426;13.284;2022-07-18T11:48:41;8.10;;;4.03;;
16409;SDS011;8314;52.426;13.284;2022-07-18T11:51:10;7.80;;;3.72;;
16409;SDS011;8314;52.426;13.284;2022-07-18T11:53:42;6.57;;;3.58;;
16409;SDS011;8314;52.426;13.284;2022-07-18T11:56:11;7.78;;;3.50;;
16409;SDS011;8314;52.426;13.284;2022-07-18T11:58:40;7.57;;;4.05;;
16409;SDS011;8314;52.426;13.284;2022-07-18T12:01:09;8.32;;;3.90;;
16409;SDS011;8314;52.426;13.284;2022-07-18T12:03:39;6.45;;;3.45;;
16409;SDS011;8314;52.426;13.284;2022-07-18T12:06:10;6.78;;;3.80;;
16409;SDS011;8314;52.426;13.284;2022-07-18T12:08:40;8.20;;;4.05;;
16409;SDS011;8314;52.426;13.284;2022-07-18T12:11:10;7.95;;;3.67;;
16409;SDS011;8314;52.426;13.284;2022-07-18T12:13:51;11.80;;;4.00;;
16409;SDS011;8314;52.426;13.284;2022-07-18T12:16:28;7.88;;;4.30;;
16409;SDS011;8314;52.426;13.284;2022-07-18T12:18:58;8.68;;;3.53;;
16409;SDS011;8314;52.426;13.284;2022-07-18T12:21:38;7.18;;;3.72;;
16409;SDS011;8314;52.426;13.284;2022-07-18T12:24:21;7.07;;;3.88;;
16409;SDS011;8314;52.426;13.284;2022-07-18T12:27:08;8.13;;;3.92;;
16409;SDS011;8314;52.426;13.284;2022-07-18T12:29:52;8.63;;;4.18;;
16409;SDS011;8314;52.426;13.284;2022-07-18T12:32:29;8.43;;;3.63;;
16409;SDS011;8314;52.426;13.284;2022-07-18T12:35:04;6.22;;;3.20;;
16409;SDS011;8314;52.426;13.284;2022-07-18T12:37:33;7.93;;;3.80;;
16409;SDS011;8314;52.426;13.284;2022-07-18T12:40:02;6.25;;;4.00;;
16409;SDS011;8314;52.426;13.284;2022-07-18T12:43:00;7.15;;;3.63;;
16409;SDS011;8314;52.426;13.284;2022-07-18T12:45:29;6.80;;;3.42;;
16409;SDS011;8314;52.426;13.284;2022-07-18T12:47:57;6.32;;;3.40;;
16409;SDS011;8314;52.426;13.284;2022-07-18T12:50:25;8.52;;;3.88;;
16409;SDS011;8314;52.426;13.284;2022-07-18T12:52:52;6.88;;;3.75;;
16409;SDS011;8314;52.426;13.284;2022-07-18T12:55:20;6.25;;;3.67;;
16409;SDS011;8314;52.426;13.284;2022-07-18T12:57:58;6.38;;;3.80;;
16409;SDS011;8314;52.426;13.284;2022-07-18T13:00:26;9.35;;;3.92;;
16409;SDS011;8314;52.426;13.284;2022-07-18T13:02:55;7.75;;;3.58;;
16409;SDS011;8314;52.426;13.284;2022-07-18T13:16:49;6.90;;;3.55;;
16409;SDS011;8314;52.426;13.284;2022-07-18T13:19:22;6.75;;;3.83;;
16409;SDS011;8314;52.426;13.284;2022-07-18T13:21:50;7.45;;;3.70;;
16409;SDS011;8314;52.426;13.284;2022-07-18T13:24:18;7.47;;;4.00;;
16409;SDS011;8314;52.426;13.284;2022-07-18T13:27:01;11.47;;;3.83;;
16409;SDS011;8314;52.426;13.284;2022-07-18T13:29:28;7.90;;;4.10;;
16409;SDS011;8314;52.426;13.284;2022-07-18T13:31:57;8.02;;;4.05;;
16409;SDS011;8314;52.426;13.284;2022-07-18T13:34:25;9.07;;;4.32;;
16409;SDS011;8314;52.426;13.284;2022-07-18T13:36:53;7.57;;;3.97;;
16409;SDS011;8314;52.426;13.284;2022-07-18T13:39:21;7.70;;;3.90;;
16409;SDS011;8314;52.426;13.284;2022-07-18T13:41:50;10.07;;;5.00;;
16409;SDS011;8314;52.426;13.284;2022-07-18T13:44:18;7.93;;;4.05;;
16409;SDS011;8314;52.426;13.284;2022-07-18T13:46:45;7.75;;;3.78;;
16409;SDS011;8314;52.426;13.284;2022-07-18T13:49:14;9.27;;;4.32;;
16409;SDS011;8314;52.426;13.284;2022-07-18T13:51:43;7.85;;;3.88;;
16409;SDS011;8314;52.426;13.284;2022-07-18T13:54:10;9.00;;;3.85;;
16409;SDS011;8314;52.426;13.284;2022-07-18T13:56:38;9.02;;;4.35;;
16409;SDS011;8314;52.426;13.284;2022-07-18T13:59:06;8.52;;;3.97;;
16409;SDS011;8314;52.426;13.284;2022-07-18T14:01:34;8.15;;;4.15;;
16409;SDS011;8314;52.426;13.284;2022-07-18T14:04:02;9.80;;;4.50;;
16409;SDS011;8314;52.426;13.284;2022-07-18T14:06:32;10.32;;;4.45;;
16409;SDS011;8314;52.426;13.284;2022-07-18T14:09:01;7.57;;;4.20;;
16409;SDS011;8314;52.426;13.284;2022-07-18T14:11:29;7.10;;;3.92;;
16409;SDS011;8314;52.426;13.284;2022-07-18T14:13:58;8.02;;;4.40;;
16409;SDS011;8314;52.426;13.284;2022-07-18T14:16:26;6.55;;;3.60;;
16409;SDS011;8314;52.426;13.284;2022-07-18T14:18:54;8.82;;;4.63;;
16409;SDS011;8314;52.426;13.284;2022-07-18T14:21:22;7.80;;;3.90;;
16409;SDS011;8314;52.426;13.284;2022-07-18T14:23:51;9.57;;;5.00;;
16409;SDS011;8314;52.426;13.284;2022-07-18T14:26:18;10.07;;;4.82;;
16409;SDS011;8314;52.426;13.284;2022-07-18T14:28:46;10.40;;;5.13;;
16409;SDS011;8314;52.426;13.284;2022-07-18T14:31:14;10.55;;;4.55;;
16409;SDS011;8314;52.426;13.284;2022-07-18T14:33:42;8.20;;;4.30;;
16409;SDS011;8314;52.426;13.284;2022-07-18T14:36:10;7.25;;;4.43;;
16409;SDS011;8314;52.426;13.284;2022-07-18T14:38:38;7.65;;;4.70;;
16409;SDS011;8314;52.426;13.284;2022-07-18T14:41:07;11.15;;;4.80;;
16409;SDS011;8314;52.426;13.284;2022-07-18T14:43:35;8.88;;;4.68;;
16409;SDS011;8314;52.426;13.284;2022-07-18T14:46:03;9.23;;;4.57;;
16409;SDS011;8314;52.426;13.284;2022-07-18T14:48:30;11.80;;;5.22;;
16409;SDS011;8314;52.426;13.284;2022-07-18T14:51:01;10.52;;;4.47;;
16409;SDS011;8314;52.426;13.284;2022-07-18T14:53:29;10.02;;;4.53;;
16409;SDS011;8314;52.426;13.284;2022-07-18T14:55:59;8.07;;;4.40;;
16409;SDS011;8314;52.426;13.284;2022-07-18T14:58:28;7.45;;;4.18;;
16409;SDS011;8314;52.426;13.284;2022-07-18T15:00:56;9.35;;;4.32;;
16409;SDS011;8314;52.426;13.284;2022-07-18T15:03:24;8.50;;;4.47;;
16409;SDS011;8314;52.426;13.284;2022-07-18T15:06:12;9.45;;;4.10;;
16409;SDS011;8314;52.426;13.284;2022-07-18T15:08:39;9.00;;;4.40;;
16409;SDS011;8314;52.426;13.284;2022-07-18T15:11:07;8.77;;;4.68;;
16409;SDS011;8314;52.426;13.284;2022-07-18T15:13:36;9.73;;;4.82;;
16409;SDS011;8314;52.426;13.284;2022-07-18T15:16:04;10.23;;;4.50;;
16409;SDS011;8314;52.426;13.284;2022-07-18T15:18:32;8.40;;;4.03;;
16409;SDS011;8314;52.426;13.284;2022-07-18T15:21:00;10.07;;;4.75;;
16409;SDS011;8314;52.426;13.284;2022-07-18T15:23:27;8.63;;;4.45;;
16409;SDS011;8314;52.426;13.284;2022-07-18T15:25:55;10.25;;;4.68;;
16409;SDS011;8314;52.426;13.284;2022-07-18T15:28:22;11.18;;;4.72;;
16409;SDS011;8314;52.426;13.284;2022-07-18T15:30:51;10.30;;;4.97;;
16409;SDS011;8314;52.426;13.284;2022-07-18T15:33:19;11.20;;;4.80;;
16409;SDS011;8314;52.426;13.284;2022-07-18T15:35:47;11.07;;;4.50;;
16409;SDS011;8314;52.426;13.284;2022-07-18T15:38:15;9.73;;;4.80;;
16409;SDS011;8314;52.426;13.284;2022-07-18T15:40:42;9.35;;;4.63;;
16409;SDS011;8314;52.426;13.284;2022-07-18T15:43:10;10.90;;;4.88;;
16409;SDS011;8314;52.426;13.284;2022-07-18T15:45:38;11.98;;;5.00;;
16409;SDS011;8314;52.426;13.284;2022-07-18T15:48:08;12.90;;;5.28;;
16409;SDS011;8314;52.426;13.284;2022-07-18T15:50:35;12.90;;;5.13;;
16409;SDS011;8314;52.426;13.284;2022-07-18T15:53:03;10.32;;;4.90;;
16409;SDS011;8314;52.426;13.284;2022-07-18T15:55:32;8.70;;;4.63;;
16409;SDS011;8314;52.426;13.284;2022-07-18T15:57:59;8.30;;;4.85;;
16409;SDS011;8314;52.426;13.284;2022-07-18T16:00:27;8.35;;;4.47;;
16409;SDS011;8314;52.426;13.284;2022-07-18T16:02:55;11.57;;;5.30;;
16409;SDS011;8314;52.426;13.284;2022-07-18T16:05:24;9.20;;;4.35;;
16409;SDS011;8314;52.426;13.284;2022-07-18T16:07:53;7.43;;;4.45;;
16409;SDS011;8314;52.426;13.284;2022-07-18T16:10:20;7.35;;;4.18;;
16409;SDS011;8314;52.426;13.284;2022-07-18T16:12:48;7.70;;;4.35;;
16409;SDS011;8314;52.426;13.284;2022-07-18T16:15:16;8.38;;;4.32;;